createdAt,value
2018-05-12T00:00:10.523Z,13.1
2018-05-12T00:01:09.971Z,13.1
2018-05-12T00:02:09.306Z,13.1
2018-05-12T00:03:08.633Z,13
2018-05-12T00:04:07.752Z,13
2018-05-12T00:05:06.961Z,13
2018-05-12T00:06:06.191Z,13
2018-05-12T00:07:05.516Z,13
2018-05-12T00:08:04.736Z,12.9
2018-05-12T00:08:35.380Z,12.9
2018-05-12T00:09:05.925Z,12.9
2018-05-12T00:09:36.665Z,12.9
2018-05-12T00:10:07.203Z,12.9
2018-05-12T00:10:37.845Z,12.9
2018-05-12T00:12:01.952Z,12.8
2018-05-12T00:13:00.780Z,12.8
2018-05-12T00:13:59.991Z,12.8
2018-05-12T00:14:59.732Z,12.8
2018-05-12T00:15:58.909Z,12.8
2018-05-12T00:16:58.257Z,12.8
2018-05-12T00:17:57.074Z,12.7
2018-05-12T00:18:56.290Z,12.7
2018-05-12T00:19:26.712Z,12.7
2018-05-12T00:19:57.339Z,12.7
2018-05-12T00:20:27.869Z,12.7
2018-05-12T00:20:58.489Z,12.7
2018-05-12T00:21:29.131Z,12.7
2018-05-12T00:21:59.776Z,12.7
2018-05-12T00:22:30.310Z,12.7
2018-05-12T00:23:52.673Z,12.6
2018-05-12T00:25:50.671Z,12.6
2018-05-12T00:26:50.499Z,12.6
2018-05-12T00:27:49.933Z,12.5
2018-05-12T00:28:48.758Z,12.5
2018-05-12T00:30:47.473Z,12.5
2018-05-12T00:31:46.792Z,12.5
2018-05-12T00:32:17.534Z,12.5
2018-05-12T00:32:47.685Z,12.4
2018-05-12T00:33:18.214Z,12.4
2018-05-12T00:34:44.214Z,12.4
2018-05-12T00:35:43.646Z,12.4
2018-05-12T00:36:42.784Z,12.4
2018-05-12T00:37:42.014Z,12.3
2018-05-12T00:38:41.351Z,12.3
2018-05-12T00:39:40.571Z,12.3
2018-05-12T00:40:39.909Z,12.3
2018-05-12T00:41:38.820Z,12.3
2018-05-12T00:42:38.249Z,12.3
2018-05-12T00:43:37.577Z,12.3
2018-05-12T00:44:36.509Z,12.3
2018-05-12T00:45:35.834Z,12.3
2018-05-12T00:46:35.051Z,12.3
2018-05-12T00:47:34.492Z,12.3
2018-05-12T00:48:34.020Z,12.3
2018-05-12T00:49:32.626Z,12.3
2018-05-12T00:50:31.948Z,12.3
2018-05-12T00:51:31.387Z,12.3
2018-05-12T00:52:01.653Z,12.3
2018-05-12T00:53:29.445Z,12.3
2018-05-12T00:54:28.897Z,12.3
2018-05-12T00:55:28.223Z,12.3
2018-05-12T00:56:27.659Z,12.3
2018-05-12T00:57:26.369Z,12.3
2018-05-12T00:58:25.792Z,12.3
2018-05-12T00:59:25.004Z,12.3
2018-05-12T01:00:24.108Z,12.3
2018-05-12T01:01:23.450Z,12.2
2018-05-12T01:01:54.192Z,12.2
2018-05-12T01:02:24.735Z,12.2
2018-05-12T01:02:55.379Z,12.2
2018-05-12T01:03:26.017Z,12.2
2018-05-12T01:03:56.537Z,12.2
2018-05-12T01:04:26.951Z,12.2
2018-05-12T01:05:20.849Z,12.2
2018-05-12T01:06:19.564Z,12.2
2018-05-12T01:07:18.894Z,12.2
2018-05-12T01:08:18.116Z,12.2
2018-05-12T01:09:17.452Z,12.2
2018-05-12T01:10:16.570Z,12.2
2018-05-12T01:11:15.901Z,12.2
2018-05-12T01:12:15.230Z,12.2
2018-05-12T01:13:14.060Z,12.1
2018-05-12T01:15:12.879Z,12.2
2018-05-12T01:16:12.204Z,12.1
2018-05-12T01:17:11.417Z,12.1
2018-05-12T01:18:10.748Z,12.1
2018-05-12T01:19:09.582Z,12.1
2018-05-12T01:20:09.015Z,12.1
2018-05-12T01:21:08.459Z,12.1
2018-05-12T01:22:07.376Z,12.1
2018-05-12T01:23:06.822Z,12.1
2018-05-12T01:24:05.528Z,12.1
2018-05-12T01:25:04.741Z,12.1
2018-05-12T01:26:04.083Z,12.1
2018-05-12T01:27:03.408Z,12
2018-05-12T01:28:02.807Z,12
2018-05-12T01:29:02.140Z,12
2018-05-12T01:31:00.434Z,12
2018-05-12T01:31:59.549Z,11.9
2018-05-12T01:32:58.786Z,11.9
2018-05-12T01:33:58.216Z,11.9
2018-05-12T01:34:57.420Z,11.9
2018-05-12T01:35:56.349Z,11.9
2018-05-12T01:36:55.813Z,11.9
2018-05-12T01:37:55.038Z,11.9
2018-05-12T01:38:54.369Z,11.9
2018-05-12T01:39:53.589Z,11.9
2018-05-12T01:40:52.196Z,11.8
2018-05-12T01:41:51.914Z,11.8
2018-05-12T01:42:51.236Z,11.8
2018-05-12T01:43:50.091Z,11.7
2018-05-12T01:44:49.528Z,11.7
2018-05-12T01:45:48.755Z,11.7
2018-05-12T01:47:47.063Z,11.7
2018-05-12T01:48:46.060Z,11.7
2018-05-12T01:49:45.579Z,11.6
2018-05-12T01:50:44.921Z,11.6
2018-05-12T01:51:44.022Z,11.6
2018-05-12T01:52:43.354Z,11.6
2018-05-12T01:53:42.173Z,11.6
2018-05-12T01:54:41.502Z,11.6
2018-05-12T01:55:40.940Z,11.6
2018-05-12T01:56:40.371Z,11.6
2018-05-12T01:57:10.503Z,11.6
2018-05-12T01:57:41.245Z,11.6
2018-05-12T01:58:11.496Z,11.6
2018-05-12T01:58:42.034Z,11.5
2018-05-12T01:59:12.731Z,11.5
2018-05-12T01:59:42.756Z,11.5
2018-05-12T02:00:36.941Z,11.5
2018-05-12T02:01:36.263Z,11.5
2018-05-12T02:02:35.695Z,11.5
2018-05-12T02:03:34.629Z,11.5
2018-05-12T02:04:34.149Z,11.5
2018-05-12T02:05:32.978Z,11.5
2018-05-12T02:06:32.307Z,11.5
2018-05-12T02:07:31.744Z,11.5
2018-05-12T02:08:01.774Z,11.5
2018-05-12T02:09:29.686Z,11.5
2018-05-12T02:10:29.009Z,11.5
2018-05-12T02:11:28.334Z,11.5
2018-05-12T02:12:27.661Z,11.5
2018-05-12T02:13:26.607Z,11.5
2018-05-12T02:14:25.985Z,11.5
2018-05-12T02:15:25.207Z,11.5
2018-05-12T02:16:24.205Z,11.5
2018-05-12T02:17:23.638Z,11.5
2018-05-12T02:18:23.068Z,11.4
2018-05-12T02:19:21.460Z,11.4
2018-05-12T02:20:21.067Z,11.4
2018-05-12T02:22:19.569Z,11.4
2018-05-12T02:24:18.276Z,11.5
2018-05-12T02:25:16.989Z,11.5
2018-05-12T02:26:16.611Z,11.5
2018-05-12T02:27:15.828Z,11.5
2018-05-12T02:28:14.835Z,11.5
2018-05-12T02:28:45.364Z,11.5
2018-05-12T02:29:16.123Z,11.5
2018-05-12T02:30:13.571Z,11.5
2018-05-12T02:31:12.513Z,11.5
2018-05-12T02:32:11.730Z,11.6
2018-05-12T02:33:10.747Z,11.5
2018-05-12T02:34:10.077Z,11.6
2018-05-12T02:35:09.527Z,11.6
2018-05-12T02:36:08.890Z,11.6
2018-05-12T02:37:07.618Z,11.6
2018-05-12T02:38:06.841Z,11.6
2018-05-12T02:39:05.966Z,11.6
2018-05-12T02:39:36.616Z,11.6
2018-05-12T02:41:04.430Z,11.6
2018-05-12T02:42:03.876Z,11.6
2018-05-12T02:43:03.003Z,11.6
2018-05-12T02:44:02.149Z,11.6
2018-05-12T02:45:01.607Z,11.7
2018-05-12T02:46:00.829Z,11.7
2018-05-12T02:46:59.944Z,11.7
2018-05-12T02:47:59.277Z,11.6
2018-05-12T02:48:58.125Z,11.6
2018-05-12T02:49:57.249Z,11.7
2018-05-12T02:50:27.882Z,11.7
2018-05-12T02:51:56.038Z,11.6
2018-05-12T02:52:55.251Z,11.6
2018-05-12T02:53:54.685Z,11.6
2018-05-12T02:54:53.519Z,11.6
2018-05-12T02:55:52.872Z,11.6
2018-05-12T02:56:52.206Z,11.6
2018-05-12T02:57:51.142Z,11.6
2018-05-12T02:58:50.475Z,11.6
2018-05-12T02:59:49.807Z,11.6
2018-05-12T03:00:48.306Z,11.6
2018-05-12T03:01:48.046Z,11.6
2018-05-12T03:02:47.368Z,11.6
2018-05-12T03:03:46.590Z,11.6
2018-05-12T03:04:45.830Z,11.6
2018-05-12T03:05:44.664Z,11.6
2018-05-12T03:06:43.795Z,11.5
2018-05-12T03:07:42.915Z,11.6
2018-05-12T03:08:42.649Z,11.6
2018-05-12T03:09:41.982Z,11.6
2018-05-12T03:10:40.732Z,11.5
2018-05-12T03:11:40.067Z,11.5
2018-05-12T03:12:39.519Z,11.5
2018-05-12T03:13:38.338Z,11.5
2018-05-12T03:14:37.565Z,11.6
2018-05-12T03:15:36.971Z,11.6
2018-05-12T03:16:36.196Z,11.6
2018-05-12T03:17:35.521Z,11.6
2018-05-12T03:18:34.844Z,11.6
2018-05-12T03:19:33.964Z,11.6
2018-05-12T03:20:32.780Z,11.6
2018-05-12T03:21:32.000Z,11.6
2018-05-12T03:22:31.219Z,11.6
2018-05-12T03:23:30.540Z,11.6
2018-05-12T03:24:29.757Z,11.6
2018-05-12T03:25:29.084Z,11.6
2018-05-12T03:26:28.405Z,11.6
2018-05-12T03:28:26.391Z,11.6
2018-05-12T03:29:25.713Z,11.6
2018-05-12T03:30:24.831Z,11.6
2018-05-12T03:32:23.215Z,11.6
2018-05-12T03:33:23.040Z,11.7
2018-05-12T03:34:21.648Z,11.7
2018-05-12T03:35:21.473Z,11.7
2018-05-12T03:37:19.710Z,11.7
2018-05-12T03:38:18.825Z,11.7
2018-05-12T03:39:18.158Z,11.7
2018-05-12T03:40:17.491Z,11.7
2018-05-12T03:41:16.202Z,11.7
2018-05-12T03:42:15.519Z,11.7
2018-05-12T03:43:14.623Z,11.7
2018-05-12T03:44:14.051Z,11.7
2018-05-12T03:45:13.387Z,11.7
2018-05-12T03:46:12.838Z,11.7
2018-05-12T03:48:10.932Z,11.7
2018-05-12T03:50:09.539Z,11.7
2018-05-12T03:51:08.476Z,11.7
2018-05-12T03:52:07.807Z,11.7
2018-05-12T03:53:07.028Z,11.7
2018-05-12T03:54:06.351Z,11.7
2018-05-12T03:55:05.171Z,11.7
2018-05-12T03:56:04.378Z,11.7
2018-05-12T03:57:03.373Z,11.7
2018-05-12T03:58:03.205Z,11.7
2018-05-12T03:59:01.918Z,11.7
2018-05-12T03:59:32.547Z,11.7
2018-05-12T04:01:00.568Z,11.7
2018-05-12T04:02:00.003Z,11.7
2018-05-12T04:02:58.831Z,11.7
2018-05-12T04:03:58.043Z,11.7
2018-05-12T04:04:57.368Z,11.7
2018-05-12T04:05:56.695Z,11.8
2018-05-12T04:06:56.020Z,11.8
2018-05-12T04:07:54.843Z,11.8
2018-05-12T04:08:54.176Z,11.8
2018-05-12T04:10:52.781Z,11.8
2018-05-12T04:11:52.102Z,11.8
2018-05-12T04:12:50.823Z,11.8
2018-05-12T04:13:50.661Z,11.9
2018-05-12T04:14:49.266Z,11.9
2018-05-12T04:15:48.484Z,11.9
2018-05-12T04:16:47.813Z,11.9
2018-05-12T04:17:47.143Z,11.9
2018-05-12T04:18:46.361Z,11.9
2018-05-12T04:20:44.964Z,11.9
2018-05-12T04:21:43.786Z,12
2018-05-12T04:22:43.213Z,12
2018-05-12T04:23:42.539Z,12
2018-05-12T04:24:41.963Z,12
2018-05-12T04:25:40.691Z,12
2018-05-12T04:26:40.019Z,12.1
2018-05-12T04:27:39.450Z,12.1
2018-05-12T04:28:38.165Z,12.1
2018-05-12T04:29:37.489Z,12.1
2018-05-12T04:30:36.818Z,12.2
2018-05-12T04:31:36.147Z,12.2
2018-05-12T04:32:35.366Z,12.2
2018-05-12T04:33:34.587Z,12.3
2018-05-12T04:34:33.816Z,12.3
2018-05-12T04:35:33.133Z,12.3
2018-05-12T04:36:32.061Z,12.3
2018-05-12T04:37:31.280Z,12.3
2018-05-12T04:38:30.512Z,12.4
2018-05-12T04:39:29.855Z,12.4
2018-05-12T04:40:29.067Z,12.4
2018-05-12T04:41:28.283Z,12.4
2018-05-12T04:42:27.394Z,12.4
2018-05-12T04:43:27.128Z,12.4
2018-05-12T04:44:25.923Z,12.4
2018-05-12T04:45:25.257Z,12.5
2018-05-12T04:46:24.585Z,12.5
2018-05-12T04:47:23.515Z,12.5
2018-05-12T04:48:22.959Z,12.5
2018-05-12T04:49:21.674Z,12.5
2018-05-12T04:50:21.010Z,12.5
2018-05-12T04:51:20.421Z,12.5
2018-05-12T04:52:19.647Z,12.5
2018-05-12T04:53:18.763Z,12.6
2018-05-12T04:54:18.690Z,12.6
2018-05-12T04:55:17.419Z,12.6
2018-05-12T04:56:16.739Z,12.6
2018-05-12T04:57:15.557Z,12.7
2018-05-12T04:58:14.760Z,12.7
2018-05-12T04:59:14.090Z,12.7
2018-05-12T05:00:13.214Z,12.7
2018-05-12T05:01:12.452Z,12.7
2018-05-12T05:02:11.843Z,12.8
2018-05-12T05:03:11.163Z,12.8
2018-05-12T05:04:10.592Z,12.8
2018-05-12T05:05:09.298Z,12.8
2018-05-12T05:06:08.613Z,12.8
2018-05-12T05:07:07.934Z,12.8
2018-05-12T05:08:07.693Z,12.9
2018-05-12T05:10:06.040Z,12.9
2018-05-12T05:11:04.858Z,12.9
2018-05-12T05:13:03.466Z,12.9
2018-05-12T05:14:02.465Z,12.9
2018-05-12T05:15:01.797Z,13
2018-05-12T05:16:01.015Z,13
2018-05-12T05:17:00.228Z,13
2018-05-12T05:17:59.572Z,13
2018-05-12T05:18:58.694Z,13.1
2018-05-12T05:19:57.907Z,13.1
2018-05-12T05:20:57.012Z,13
2018-05-12T05:21:56.221Z,13.1
2018-05-12T05:22:55.656Z,13.1
2018-05-12T05:24:54.152Z,13.1
2018-05-12T05:25:24.788Z,13.1
2018-05-12T05:26:52.406Z,13.1
2018-05-12T05:27:51.514Z,13.2
2018-05-12T05:29:50.434Z,13.2
2018-05-12T05:30:49.755Z,13.2
2018-05-12T05:31:48.370Z,13.2
2018-05-12T05:32:47.808Z,13.2
2018-05-12T05:34:46.097Z,13.2
2018-05-12T05:35:16.943Z,13.2
2018-05-12T05:36:44.969Z,13.3
2018-05-12T05:37:15.392Z,13.3
2018-05-12T05:37:45.915Z,13.3
2018-05-12T05:39:42.612Z,13.3
2018-05-12T05:40:41.932Z,13.3
2018-05-12T05:41:41.568Z,13.4
2018-05-12T05:42:40.385Z,13.4
2018-05-12T05:43:39.713Z,13.3
2018-05-12T05:44:38.431Z,13.3
2018-05-12T05:45:37.872Z,13.4
2018-05-12T05:46:37.208Z,13.4
2018-05-12T05:47:07.740Z,13.4
2018-05-12T05:47:38.175Z,13.3
2018-05-12T05:48:08.700Z,13.3
2018-05-12T05:48:39.334Z,13.4
2018-05-12T05:49:09.467Z,13.4
2018-05-12T05:49:39.986Z,13.4
2018-05-12T05:50:34.384Z,13.3
2018-05-12T05:51:33.500Z,13.3
2018-05-12T05:52:32.713Z,13.4
2018-05-12T05:53:32.151Z,13.4
2018-05-12T05:54:31.087Z,13.4
2018-05-12T05:55:30.307Z,13.4
2018-05-12T05:56:29.647Z,13.4
2018-05-12T05:57:28.966Z,13.4
2018-05-12T05:58:28.708Z,13.4
2018-05-12T05:59:27.652Z,13.4
2018-05-12T06:01:25.543Z,13.5
2018-05-12T06:03:24.161Z,13.5
2018-05-12T06:04:23.488Z,13.5
2018-05-12T06:05:22.921Z,13.5
2018-05-12T06:06:22.247Z,13.5
2018-05-12T06:06:53.435Z,13.5
2018-05-12T06:08:20.661Z,13.5
2018-05-12T06:09:19.983Z,13.6
2018-05-12T06:10:18.702Z,13.6
2018-05-12T06:11:18.312Z,13.6
2018-05-12T06:13:17.031Z,13.7
2018-05-12T06:15:15.236Z,13.7
2018-05-12T06:16:14.682Z,13.7
2018-05-12T06:17:13.619Z,13.7
2018-05-12T06:17:43.755Z,13.7
2018-05-12T06:18:14.631Z,13.8
2018-05-12T06:18:44.550Z,13.8
2018-05-12T06:19:15.190Z,13.8
2018-05-12T06:20:11.383Z,13.8
2018-05-12T06:21:10.812Z,13.8
2018-05-12T06:22:10.243Z,13.9
2018-05-12T06:23:08.864Z,13.9
2018-05-12T06:24:08.702Z,13.9
2018-05-12T06:25:08.058Z,14
2018-05-12T06:26:06.782Z,13.9
2018-05-12T06:27:05.998Z,14
2018-05-12T06:28:05.219Z,14
2018-05-12T06:28:35.855Z,14
2018-05-12T06:29:06.490Z,14
2018-05-12T06:30:03.713Z,14
2018-05-12T06:31:03.147Z,14
2018-05-12T06:32:02.256Z,14
2018-05-12T06:33:01.472Z,14
2018-05-12T06:34:00.597Z,14
2018-05-12T06:35:00.220Z,14
2018-05-12T06:35:59.557Z,14
2018-05-12T06:36:58.884Z,14.1
2018-05-12T06:37:58.213Z,14.1
2018-05-12T06:38:57.142Z,14.1
2018-05-12T06:39:56.582Z,14.2
2018-05-12T06:40:55.685Z,14.2
2018-05-12T06:41:54.918Z,14.2
2018-05-12T06:42:54.258Z,14.2
2018-05-12T06:43:53.581Z,14.2
2018-05-12T06:44:52.912Z,14.2
2018-05-12T06:45:52.020Z,14.2
2018-05-12T06:46:51.343Z,14.3
2018-05-12T06:47:50.671Z,14.3
2018-05-12T06:48:50.099Z,14.3
2018-05-12T06:49:48.819Z,14.3
2018-05-12T06:50:48.282Z,14.4
2018-05-12T06:51:47.611Z,14.4
2018-05-12T06:52:47.143Z,14.4
2018-05-12T06:53:45.759Z,14.4
2018-05-12T06:54:45.590Z,14.5
2018-05-12T06:55:44.301Z,14.5
2018-05-12T06:56:43.641Z,14.6
2018-05-12T06:57:42.868Z,14.6
2018-05-12T06:58:42.593Z,14.6
2018-05-12T06:59:41.304Z,14.7
2018-05-12T07:00:41.136Z,14.7
2018-05-12T07:01:40.462Z,14.8
2018-05-12T07:02:39.186Z,14.8
2018-05-12T07:03:38.620Z,14.9
2018-05-12T07:04:37.833Z,15
2018-05-12T07:05:36.947Z,15
2018-05-12T07:06:36.788Z,15
2018-05-12T07:07:35.502Z,15.1
2018-05-12T07:08:34.621Z,15.1
2018-05-12T07:09:34.451Z,15.2
2018-05-12T07:10:33.661Z,15.2
2018-05-12T07:11:32.982Z,15.2
2018-05-12T07:12:31.815Z,15.3
2018-05-12T07:13:31.145Z,15.4
2018-05-12T07:14:01.898Z,15.4
2018-05-12T07:14:31.922Z,15.5
2018-05-12T07:15:02.254Z,15.5
2018-05-12T07:16:29.270Z,15.6
2018-05-12T07:19:27.311Z,15.7
2018-05-12T07:20:26.243Z,15.7
2018-05-12T07:21:25.574Z,15.8
2018-05-12T07:22:24.581Z,15.8
2018-05-12T07:23:24.201Z,15.9
2018-05-12T07:23:54.717Z,15.9
2018-05-12T07:24:25.265Z,15.9
2018-05-12T07:24:55.905Z,15.9
2018-05-12T07:25:25.941Z,16
2018-05-12T07:25:56.472Z,16
2018-05-12T07:27:20.867Z,16
2018-05-12T07:28:20.604Z,16.1
2018-05-12T07:29:19.811Z,16.1
2018-05-12T07:30:19.162Z,16.1
2018-05-12T07:31:18.500Z,16.1
2018-05-12T07:32:17.836Z,16
2018-05-12T07:33:17.265Z,16
2018-05-12T07:34:16.090Z,16
2018-05-12T07:35:15.522Z,16
2018-05-12T07:36:14.842Z,16
2018-05-12T07:37:14.069Z,16
2018-05-12T07:38:13.295Z,16.1
2018-05-12T07:39:12.623Z,16.1
2018-05-12T07:40:12.059Z,16.2
2018-05-12T07:41:11.394Z,16.2
2018-05-12T07:42:10.833Z,16.2
2018-05-12T07:43:09.950Z,16.2
2018-05-12T07:43:40.486Z,16.2
2018-05-12T07:45:08.391Z,16.3
2018-05-12T07:46:07.731Z,16.3
2018-05-12T07:47:06.960Z,16.2
2018-05-12T07:48:06.392Z,16.3
2018-05-12T07:49:05.609Z,16.3
2018-05-12T07:50:04.925Z,16.3
2018-05-12T07:52:03.745Z,16.4
2018-05-12T07:53:02.460Z,16.4
2018-05-12T07:53:33.095Z,16.4
2018-05-12T07:55:01.131Z,16.5
2018-05-12T07:55:31.664Z,16.5
2018-05-12T07:56:02.204Z,16.5
2018-05-12T07:56:32.959Z,16.5
2018-05-12T07:57:03.544Z,16.5
2018-05-12T07:57:33.802Z,16.5
2018-05-12T07:58:58.573Z,16.5
2018-05-12T08:00:57.081Z,16.6
2018-05-12T08:01:56.425Z,16.6
2018-05-12T08:02:55.756Z,16.6
2018-05-12T08:03:54.756Z,16.6
2018-05-12T08:04:54.559Z,16.6
2018-05-12T08:05:25.305Z,16.6
2018-05-12T08:05:55.547Z,16.7
2018-05-12T08:06:26.181Z,16.7
2018-05-12T08:06:56.608Z,16.7
2018-05-12T08:07:27.136Z,16.7
2018-05-12T08:08:51.512Z,16.8
2018-05-12T08:09:50.836Z,16.7
2018-05-12T08:10:50.219Z,16.7
2018-05-12T08:11:49.431Z,16.7
2018-05-12T08:12:48.882Z,16.7
2018-05-12T08:13:47.893Z,16.8
2018-05-12T08:15:46.492Z,16.8
2018-05-12T08:16:46.104Z,16.9
2018-05-12T08:17:45.343Z,16.9
2018-05-12T08:18:44.564Z,17
2018-05-12T08:19:43.786Z,17.1
2018-05-12T08:20:43.111Z,17.2
2018-05-12T08:21:42.542Z,17.3
2018-05-12T08:22:41.875Z,17.3
2018-05-12T08:23:41.200Z,17.4
2018-05-12T08:24:40.626Z,17.4
2018-05-12T08:25:40.057Z,17.4
2018-05-12T08:26:39.283Z,17.5
2018-05-12T08:27:38.496Z,17.5
2018-05-12T08:28:37.719Z,17.6
2018-05-12T08:29:37.041Z,17.6
2018-05-12T08:30:36.863Z,17.6
2018-05-12T08:32:35.072Z,17.6
2018-05-12T08:33:34.408Z,17.6
2018-05-12T08:34:33.736Z,17.6
2018-05-12T08:35:33.163Z,17.6
2018-05-12T08:36:32.163Z,17.6
2018-05-12T08:37:31.879Z,17.6
2018-05-12T08:38:02.311Z,17.6
2018-05-12T08:38:32.841Z,17.7
2018-05-12T08:39:30.549Z,17.7
2018-05-12T08:40:30.282Z,17.8
2018-05-12T08:41:29.201Z,17.8
2018-05-12T08:42:28.529Z,17.9
2018-05-12T08:43:27.666Z,17.9
2018-05-12T08:44:27.104Z,17.9
2018-05-12T08:45:26.572Z,17.8
2018-05-12T08:46:26.000Z,17.8
2018-05-12T08:47:25.118Z,17.8
2018-05-12T08:48:25.071Z,17.8
2018-05-12T08:49:24.015Z,17.7
2018-05-12T08:50:22.944Z,17.8
2018-05-12T08:52:21.437Z,17.7
2018-05-12T08:53:20.785Z,17.6
2018-05-12T08:54:20.118Z,17.6
2018-05-12T08:55:19.818Z,17.6
2018-05-12T08:56:19.018Z,17.6
2018-05-12T08:57:18.126Z,17.6
2018-05-12T08:58:17.445Z,17.6
2018-05-12T08:59:16.874Z,17.6
2018-05-12T09:00:16.310Z,17.6
2018-05-12T09:01:15.636Z,17.6
2018-05-12T09:02:14.735Z,17.7
2018-05-12T09:03:14.668Z,17.7
2018-05-12T09:04:13.673Z,17.7
2018-05-12T09:06:12.276Z,17.7
2018-05-12T09:07:11.680Z,17.7
2018-05-12T09:09:10.403Z,17.8
2018-05-12T09:10:09.722Z,17.9
2018-05-12T09:11:09.051Z,17.9
2018-05-12T09:12:08.491Z,18
2018-05-12T09:13:07.916Z,18
2018-05-12T09:15:06.529Z,18.1
2018-05-12T09:16:05.850Z,18.2
2018-05-12T09:18:04.250Z,18.3
2018-05-12T09:19:03.595Z,18.4
2018-05-12T09:20:02.716Z,18.4
2018-05-12T09:21:02.548Z,18.4
2018-05-12T09:22:01.663Z,18.4
2018-05-12T09:23:00.774Z,18.5
2018-05-12T09:24:00.705Z,18.5
2018-05-12T09:24:59.811Z,18.5
2018-05-12T09:25:59.146Z,18.6
2018-05-12T09:26:58.468Z,18.7
2018-05-12T09:27:57.783Z,18.8
2018-05-12T09:28:56.995Z,18.8
2018-05-12T09:29:56.319Z,18.8
2018-05-12T09:30:56.160Z,18.9
2018-05-12T09:31:55.271Z,19
2018-05-12T09:32:54.483Z,19.1
2018-05-12T09:33:53.708Z,19.1
2018-05-12T09:34:24.453Z,19.1
2018-05-12T09:34:54.691Z,19.2
2018-05-12T09:35:24.831Z,19.2
2018-05-12T09:35:55.486Z,19.2
2018-05-12T09:36:25.908Z,19.2
2018-05-12T09:38:50.913Z,19.4
2018-05-12T09:39:50.145Z,19.5
2018-05-12T09:40:49.363Z,19.5
2018-05-12T09:41:48.480Z,19.5
2018-05-12T09:42:47.924Z,19.6
2018-05-12T09:44:46.847Z,19.5
2018-05-12T09:45:16.771Z,19.5
2018-05-12T09:47:44.562Z,19.5
2018-05-12T09:48:44.511Z,19.5
2018-05-12T09:49:43.447Z,19.5
2018-05-12T09:50:43.275Z,19.5
2018-05-12T09:51:42.101Z,19.5
2018-05-12T09:52:41.209Z,19.6
2018-05-12T09:53:41.145Z,19.6
2018-05-12T09:54:40.360Z,19.6
2018-05-12T09:55:39.688Z,19.6
2018-05-12T09:57:38.401Z,19.6
2018-05-12T09:58:37.729Z,19.6
2018-05-12T09:59:37.795Z,19.6
2018-05-12T10:00:36.638Z,19.6
2018-05-12T10:01:35.754Z,19.5
2018-05-12T10:02:35.585Z,19.4
2018-05-12T10:03:35.041Z,19.4
2018-05-12T10:04:34.260Z,19.4
2018-05-12T10:05:33.693Z,19.5
2018-05-12T10:06:33.015Z,19.6
2018-05-12T10:07:32.455Z,19.6
2018-05-12T10:08:31.888Z,19.6
2018-05-12T10:09:31.661Z,19.6
2018-05-12T10:10:30.507Z,19.7
2018-05-12T10:11:29.742Z,19.7
2018-05-12T10:12:29.077Z,19.7
2018-05-12T10:13:28.415Z,19.7
2018-05-12T10:14:27.628Z,19.7
2018-05-12T10:15:27.869Z,19.6
2018-05-12T10:16:26.716Z,19.6
2018-05-12T10:16:57.529Z,19.6
2018-05-12T10:17:27.722Z,19.6
2018-05-12T10:17:58.355Z,19.6
2018-05-12T10:18:28.384Z,19.6
2018-05-12T10:18:59.016Z,19.6
2018-05-12T10:20:24.313Z,19.6
2018-05-12T10:21:24.488Z,19.6
2018-05-12T10:22:22.964Z,19.6
2018-05-12T10:23:22.419Z,19.6
2018-05-12T10:24:21.751Z,19.6
2018-05-12T10:25:21.085Z,19.7
2018-05-12T10:26:21.043Z,19.5
2018-05-12T10:27:19.783Z,19.5
2018-05-12T10:28:19.117Z,19.5
2018-05-12T10:28:49.761Z,19.5
2018-05-12T10:30:17.664Z,19.6
2018-05-12T10:31:17.599Z,19.7
2018-05-12T10:32:16.821Z,19.7
2018-05-12T10:33:16.261Z,19.8
2018-05-12T10:34:15.601Z,19.8
2018-05-12T10:35:14.815Z,19.8
2018-05-12T10:36:14.032Z,19.9
2018-05-12T10:37:13.979Z,19.9
2018-05-12T10:38:13.417Z,19.9
2018-05-12T10:39:12.134Z,19.9
2018-05-12T10:40:11.963Z,19.9
2018-05-12T10:41:11.188Z,19.9
2018-05-12T10:42:10.617Z,19.9
2018-05-12T10:43:10.049Z,19.9
2018-05-12T10:44:09.481Z,19.9
2018-05-12T10:45:08.771Z,19.9
2018-05-12T10:46:07.874Z,19.9
2018-05-12T10:47:07.701Z,19.9
2018-05-12T10:48:06.911Z,19.9
2018-05-12T10:50:05.630Z,19.9
2018-05-12T10:51:05.353Z,20
2018-05-12T10:52:04.579Z,20
2018-05-12T10:53:03.897Z,20.1
2018-05-12T10:54:03.226Z,20.2
2018-05-12T10:55:02.554Z,20.2
2018-05-12T10:56:01.893Z,20.3
2018-05-12T10:57:01.624Z,20.3
2018-05-12T10:58:00.631Z,20.3
2018-05-12T10:59:00.646Z,20.3
2018-05-12T10:59:59.870Z,20.3
2018-05-12T11:00:59.089Z,20.4
2018-05-12T11:01:58.558Z,20.4
2018-05-12T11:02:57.908Z,20.5
2018-05-12T11:03:57.233Z,20.6
2018-05-12T11:04:56.654Z,20.7
2018-05-12T11:05:55.879Z,20.7
2018-05-12T11:06:55.495Z,20.8
2018-05-12T11:07:54.714Z,20.8
2018-05-12T11:08:54.645Z,20.9
2018-05-12T11:09:53.765Z,20.9
2018-05-12T11:10:52.886Z,20.8
2018-05-12T11:11:52.613Z,20.8
2018-05-12T11:12:52.047Z,20.9
2018-05-12T11:13:51.472Z,20.9
2018-05-12T11:14:50.691Z,21
2018-05-12T11:15:50.415Z,21
2018-05-12T11:16:49.720Z,21
2018-05-12T11:17:49.161Z,21
2018-05-12T11:18:48.500Z,21
2018-05-12T11:19:47.834Z,21
2018-05-12T11:20:47.152Z,21
2018-05-12T11:21:46.918Z,20.9
2018-05-12T11:22:46.197Z,21
2018-05-12T11:24:44.915Z,21.2
2018-05-12T11:25:44.131Z,21.2
2018-05-12T11:26:44.253Z,21.3
2018-05-12T11:27:43.186Z,21.4
2018-05-12T11:28:42.630Z,21.5
2018-05-12T11:30:41.136Z,21.7
2018-05-12T11:31:40.960Z,21.8
2018-05-12T11:32:40.291Z,21.8
2018-05-12T11:33:39.717Z,21.9
2018-05-12T11:34:39.050Z,22
2018-05-12T11:35:38.495Z,22.1
2018-05-12T11:36:38.229Z,22.1
2018-05-12T11:37:37.445Z,22.2
2018-05-12T11:38:36.575Z,22.3
2018-05-12T11:39:36.525Z,22.3
2018-05-12T11:40:35.673Z,22.4
2018-05-12T11:41:35.105Z,22.4
2018-05-12T11:42:34.434Z,22.5
2018-05-12T11:43:34.051Z,22.6
2018-05-12T11:44:34.055Z,22.4
2018-05-12T11:47:31.855Z,22.7
2018-05-12T11:48:30.855Z,22.9
2018-05-12T11:49:30.138Z,22.9
2018-05-12T11:50:30.076Z,23
2018-05-12T11:51:29.796Z,23
2018-05-12T11:52:29.239Z,23.1
2018-05-12T11:53:28.571Z,23.2
2018-05-12T11:54:28.097Z,23.1
2018-05-12T11:55:27.313Z,23.2
2018-05-12T11:56:26.923Z,23.3
2018-05-12T11:57:26.234Z,23.4
2018-05-12T11:57:56.871Z,23.4
2018-05-12T11:58:27.769Z,23.6
2018-05-12T12:00:24.752Z,23.6
2018-05-12T12:01:24.485Z,23.7
2018-05-12T12:02:23.980Z,23.8
2018-05-12T12:03:23.504Z,23.9
2018-05-12T12:04:22.832Z,23.9
2018-05-12T12:05:22.157Z,24
2018-05-12T12:06:21.499Z,24.1
2018-05-12T12:07:21.216Z,24
2018-05-12T12:08:20.443Z,23.9
2018-05-12T12:08:51.088Z,23.9
2018-05-12T12:09:21.731Z,24
2018-05-12T12:10:19.669Z,24.1
2018-05-12T12:11:18.903Z,24.1
2018-05-12T12:12:18.520Z,24.3
2018-05-12T12:13:18.253Z,24.3
2018-05-12T12:15:17.053Z,24.3
2018-05-12T12:16:16.387Z,24.3
2018-05-12T12:17:16.105Z,24.4
2018-05-12T12:18:15.829Z,24.5
2018-05-12T12:19:15.048Z,24.5
2018-05-12T12:20:14.476Z,24.7
2018-05-12T12:21:14.197Z,24.9
2018-05-12T12:22:13.518Z,24.8
2018-05-12T12:23:13.239Z,24.9
2018-05-12T12:24:12.356Z,25
2018-05-12T12:25:12.189Z,24.9
2018-05-12T12:26:11.617Z,24.9
2018-05-12T12:27:11.228Z,25.1
2018-05-12T12:28:10.547Z,25.1
2018-05-12T12:29:10.369Z,25.1
2018-05-12T12:30:09.713Z,25.2
2018-05-12T12:31:09.328Z,25.1
2018-05-12T12:32:09.038Z,25.4
2018-05-12T12:33:08.264Z,25.4
2018-05-12T12:34:08.060Z,25.5
2018-05-12T12:35:07.398Z,25.6
2018-05-12T12:36:06.514Z,25.7
2018-05-12T12:37:06.645Z,25.8
2018-05-12T12:37:37.176Z,25.8
2018-05-12T12:38:07.941Z,25.8
2018-05-12T12:39:05.645Z,25.9
2018-05-12T12:40:05.083Z,25.6
2018-05-12T12:41:04.536Z,25.8
2018-05-12T12:42:04.146Z,25.8
2018-05-12T12:43:03.978Z,26
2018-05-12T12:44:03.092Z,26
2018-05-12T12:45:03.400Z,26.1
2018-05-12T12:46:01.919Z,26
2018-05-12T12:47:02.149Z,26.2
2018-05-12T12:48:01.472Z,26.3
2018-05-12T12:49:01.187Z,26.2
2018-05-12T12:50:00.608Z,26.3
2018-05-12T12:50:59.937Z,26.3
2018-05-12T12:51:59.776Z,26.4
2018-05-12T12:52:59.323Z,26.5
2018-05-12T12:53:58.643Z,26.5
2018-05-12T12:55:57.742Z,26.6
2018-05-12T12:56:57.467Z,26.6
2018-05-12T12:57:57.410Z,26.7
2018-05-12T12:58:56.623Z,26.7
2018-05-12T12:59:56.240Z,26.6
2018-05-12T13:00:56.070Z,26.8
2018-05-12T13:01:55.401Z,26.9
2018-05-12T13:02:54.624Z,26.9
2018-05-12T13:03:54.344Z,26.7
2018-05-12T13:05:53.514Z,26.7
2018-05-12T13:06:53.124Z,26.9
2018-05-12T13:07:52.845Z,26.9
2018-05-12T13:08:52.677Z,27.1
2018-05-12T13:09:51.889Z,27
2018-05-12T13:10:51.602Z,27.1
2018-05-12T13:11:22.039Z,27.1
2018-05-12T13:12:50.574Z,27.5
2018-05-12T13:14:49.898Z,27.4
2018-05-12T13:15:49.727Z,27.4
2018-05-12T13:17:48.833Z,27
2018-05-12T13:18:48.161Z,27.1
2018-05-12T13:20:47.877Z,27.2
2018-05-12T13:21:47.312Z,27.1
2018-05-12T13:22:17.953Z,27.1
2018-05-12T13:22:47.984Z,27
2018-05-12T13:23:18.625Z,27
2018-05-12T13:24:46.028Z,27.4
2018-05-12T13:25:45.639Z,27.5
2018-05-12T13:26:44.883Z,27.6
2018-05-12T13:27:44.805Z,27.7
2018-05-12T13:28:44.377Z,27.6